sensor_id;sensor_type;location;lat;lon;timestamp;temperature;humidity
47618;DHT22;33336;36.728;-4.414;2023-09-08T00:01:56;28.30;99.90
47618;DHT22;33336;36.728;-4.414;2023-09-08T00:06:58;27.60;99.90
47618;DHT22;33336;36.728;-4.414;2023-09-08T00:12:02;27.60;99.90
47618;DHT22;33336;36.728;-4.414;2023-09-08T00:17:05;28.20;99.90
47618;DHT22;33336;36.728;-4.414;2023-09-08T00:22:08;28.50;99.90
47618;DHT22;33336;36.728;-4.414;2023-09-08T00:27:12;28.30;99.90
47618;DHT22;33336;36.728;-4.414;2023-09-08T00:32:15;27.90;99.90
47618;DHT22;33336;36.728;-4.414;2023-09-08T00:37:18;28.20;99.90
47618;DHT22;33336;36.728;-4.414;2023-09-08T00:42:22;28.00;99.90
47618;DHT22;33336;36.728;-4.414;2023-09-08T00:47:25;28.50;99.90
47618;DHT22;33336;36.728;-4.414;2023-09-08T00:52:28;27.70;99.90
47618;DHT22;33336;36.728;-4.414;2023-09-08T00:57:34;27.90;99.90
47618;DHT22;33336;36.728;-4.414;2023-09-08T01:02:37;28.20;99.90
47618;DHT22;33336;36.728;-4.414;2023-09-08T01:07:39;28.10;99.90
47618;DHT22;33336;36.728;-4.414;2023-09-08T01:12:44;28.50;99.90
47618;DHT22;33336;36.728;-4.414;2023-09-08T01:17:47;28.60;99.90
47618;DHT22;33336;36.728;-4.414;2023-09-08T01:23:03;28.70;99.90
47618;DHT22;33336;36.728;-4.414;2023-09-08T01:28:14;28.70;99.90
47618;DHT22;33336;36.728;-4.414;2023-09-08T01:33:18;28.50;99.90
47618;DHT22;33336;36.728;-4.414;2023-09-08T01:38:21;28.60;99.90
47618;DHT22;33336;36.728;-4.414;2023-09-08T01:43:25;28.60;99.90
47618;DHT22;33336;36.728;-4.414;2023-09-08T01:48:28;28.70;99.90
47618;DHT22;33336;36.728;-4.414;2023-09-08T01:53:31;28.30;99.90
47618;DHT22;33336;36.728;-4.414;2023-09-08T01:58:35;27.70;99.90
47618;DHT22;33336;36.728;-4.414;2023-09-08T02:03:38;27.60;99.90
47618;DHT22;33336;36.728;-4.414;2023-09-08T02:08:40;28.10;99.90
47618;DHT22;33336;36.728;-4.414;2023-09-08T02:13:44;28.40;99.90
47618;DHT22;33336;36.728;-4.414;2023-09-08T02:18:47;28.10;99.90
47618;DHT22;33336;36.728;-4.414;2023-09-08T02:23:50;28.40;99.90
47618;DHT22;33336;36.728;-4.414;2023-09-08T02:28:54;28.50;99.90
47618;DHT22;33336;36.728;-4.414;2023-09-08T02:33:58;28.30;99.90
47618;DHT22;33336;36.728;-4.414;2023-09-08T02:39:00;28.00;99.90
47618;DHT22;33336;36.728;-4.414;2023-09-08T02:44:05;28.10;99.90
47618;DHT22;33336;36.728;-4.414;2023-09-08T02:49:07;27.90;99.90
47618;DHT22;33336;36.728;-4.414;2023-09-08T02:54:11;26.90;99.90
47618;DHT22;33336;36.728;-4.414;2023-09-08T02:59:15;27.20;99.90
47618;DHT22;33336;36.728;-4.414;2023-09-08T03:04:18;27.80;99.90
47618;DHT22;33336;36.728;-4.414;2023-09-08T03:09:20;27.60;99.90
47618;DHT22;33336;36.728;-4.414;2023-09-08T03:14:24;27.20;99.90
47618;DHT22;33336;36.728;-4.414;2023-09-08T03:19:27;27.50;99.90
47618;DHT22;33336;36.728;-4.414;2023-09-08T03:24:30;26.90;99.90
47618;DHT22;33336;36.728;-4.414;2023-09-08T03:29:34;26.90;99.90
47618;DHT22;33336;36.728;-4.414;2023-09-08T03:34:37;27.50;99.90
47618;DHT22;33336;36.728;-4.414;2023-09-08T03:39:40;27.70;99.90
47618;DHT22;33336;36.728;-4.414;2023-09-08T03:44:44;27.80;99.90
47618;DHT22;33336;36.728;-4.414;2023-09-08T03:49:47;27.80;99.90
47618;DHT22;33336;36.728;-4.414;2023-09-08T03:54:50;27.80;99.90
47618;DHT22;33336;36.728;-4.414;2023-09-08T03:59:54;27.00;99.90
47618;DHT22;33336;36.728;-4.414;2023-09-08T04:04:57;26.90;99.90
47618;DHT22;33336;36.728;-4.414;2023-09-08T04:09:59;27.30;99.90
47618;DHT22;33336;36.728;-4.414;2023-09-08T04:15:04;27.60;99.90
47618;DHT22;33336;36.728;-4.414;2023-09-08T04:20:07;28.00;99.90
47618;DHT22;33336;36.728;-4.414;2023-09-08T04:25:10;28.10;99.90
47618;DHT22;33336;36.728;-4.414;2023-09-08T04:30:14;28.20;99.90
47618;DHT22;33336;36.728;-4.414;2023-09-08T04:35:17;28.20;99.90
47618;DHT22;33336;36.728;-4.414;2023-09-08T04:40:19;28.20;99.90
47618;DHT22;33336;36.728;-4.414;2023-09-08T04:45:23;28.10;99.90
47618;DHT22;33336;36.728;-4.414;2023-09-08T04:50:26;28.10;99.90
47618;DHT22;33336;36.728;-4.414;2023-09-08T04:55:29;27.60;99.90
47618;DHT22;33336;36.728;-4.414;2023-09-08T05:00:33;27.90;99.90
47618;DHT22;33336;36.728;-4.414;2023-09-08T05:05:36;27.40;99.90
47618;DHT22;33336;36.728;-4.414;2023-09-08T05:10:39;27.20;99.90
47618;DHT22;33336;36.728;-4.414;2023-09-08T05:15:43;27.40;99.90
47618;DHT22;33336;36.728;-4.414;2023-09-08T05:20:49;27.80;99.90
47618;DHT22;33336;36.728;-4.414;2023-09-08T05:25:52;27.90;99.90
47618;DHT22;33336;36.728;-4.414;2023-09-08T05:30:56;27.70;99.90
47618;DHT22;33336;36.728;-4.414;2023-09-08T05:35:59;27.10;99.90
47618;DHT22;33336;36.728;-4.414;2023-09-08T05:41:01;26.90;99.90
47618;DHT22;33336;36.728;-4.414;2023-09-08T05:46:05;26.90;99.90
47618;DHT22;33336;36.728;-4.414;2023-09-08T05:51:08;27.30;99.90
47618;DHT22;33336;36.728;-4.414;2023-09-08T05:56:11;27.50;99.90
47618;DHT22;33336;36.728;-4.414;2023-09-08T06:01:15;27.80;99.90
47618;DHT22;33336;36.728;-4.414;2023-09-08T06:06:18;28.10;99.90
47618;DHT22;33336;36.728;-4.414;2023-09-08T06:11:20;27.80;99.90
47618;DHT22;33336;36.728;-4.414;2023-09-08T06:16:24;27.80;99.90
47618;DHT22;33336;36.728;-4.414;2023-09-08T06:21:27;28.20;99.90
47618;DHT22;33336;36.728;-4.414;2023-09-08T06:26:30;28.10;99.90
47618;DHT22;33336;36.728;-4.414;2023-09-08T06:31:34;28.10;99.90
47618;DHT22;33336;36.728;-4.414;2023-09-08T06:36:37;28.30;99.90
47618;DHT22;33336;36.728;-4.414;2023-09-08T06:41:39;28.40;99.90
47618;DHT22;33336;36.728;-4.414;2023-09-08T06:46:43;28.20;99.90
47618;DHT22;33336;36.728;-4.414;2023-09-08T06:51:46;28.20;99.90
47618;DHT22;33336;36.728;-4.414;2023-09-08T06:56:50;28.50;99.90
47618;DHT22;33336;36.728;-4.414;2023-09-08T07:01:54;28.60;99.90
47618;DHT22;33336;36.728;-4.414;2023-09-08T07:06:57;28.70;99.90
47618;DHT22;33336;36.728;-4.414;2023-09-08T07:12:01;28.60;99.90
47618;DHT22;33336;36.728;-4.414;2023-09-08T07:17:05;28.70;99.90
47618;DHT22;33336;36.728;-4.414;2023-09-08T07:22:08;28.80;99.90
47618;DHT22;33336;36.728;-4.414;2023-09-08T07:27:11;28.70;99.90
47618;DHT22;33336;36.728;-4.414;2023-09-08T07:32:16;28.70;99.90
47618;DHT22;33336;36.728;-4.414;2023-09-08T07:37:20;28.80;99.90
47618;DHT22;33336;36.728;-4.414;2023-09-08T07:42:22;28.80;99.90
47618;DHT22;33336;36.728;-4.414;2023-09-08T07:47:27;28.70;99.90
47618;DHT22;33336;36.728;-4.414;2023-09-08T07:52:30;28.20;99.90
47618;DHT22;33336;36.728;-4.414;2023-09-08T07:57:33;27.30;99.90
47618;DHT22;33336;36.728;-4.414;2023-09-08T08:02:36;27.70;99.90
47618;DHT22;33336;36.728;-4.414;2023-09-08T08:07:41;27.50;99.90
47618;DHT22;33336;36.728;-4.414;2023-09-08T08:12:43;27.80;99.90
47618;DHT22;33336;36.728;-4.414;2023-09-08T08:17:48;27.80;99.90
47618;DHT22;33336;36.728;-4.414;2023-09-08T08:22:51;28.00;99.90
47618;DHT22;33336;36.728;-4.414;2023-09-08T08:27:54;28.20;99.90
47618;DHT22;33336;36.728;-4.414;2023-09-08T08:32:58;28.20;99.90
47618;DHT22;33336;36.728;-4.414;2023-09-08T08:38:02;28.50;99.90
47618;DHT22;33336;36.728;-4.414;2023-09-08T08:43:04;28.20;99.90
47618;DHT22;33336;36.728;-4.414;2023-09-08T08:48:08;29.10;99.90
47618;DHT22;33336;36.728;-4.414;2023-09-08T08:53:11;29.60;99.90
47618;DHT22;33336;36.728;-4.414;2023-09-08T08:58:15;29.40;99.90
47618;DHT22;33336;36.728;-4.414;2023-09-08T09:03:20;28.50;99.90
47618;DHT22;33336;36.728;-4.414;2023-09-08T09:08:24;28.50;99.90
47618;DHT22;33336;36.728;-4.414;2023-09-08T09:13:26;28.50;99.90
47618;DHT22;33336;36.728;-4.414;2023-09-08T09:18:31;27.70;99.90
47618;DHT22;33336;36.728;-4.414;2023-09-08T09:23:34;28.50;99.90
47618;DHT22;33336;36.728;-4.414;2023-09-08T09:28:38;28.40;99.90
47618;DHT22;33336;36.728;-4.414;2023-09-08T09:33:50;28.70;99.90
47618;DHT22;33336;36.728;-4.414;2023-09-08T09:39:04;28.40;99.90
47618;DHT22;33336;36.728;-4.414;2023-09-08T09:44:06;28.60;99.90
47618;DHT22;33336;36.728;-4.414;2023-09-08T09:49:11;28.40;99.90
47618;DHT22;33336;36.728;-4.414;2023-09-08T09:54:14;27.70;99.90
47618;DHT22;33336;36.728;-4.414;2023-09-08T09:59:18;28.10;99.90
47618;DHT22;33336;36.728;-4.414;2023-09-08T10:04:21;28.60;99.90
47618;DHT22;33336;36.728;-4.414;2023-09-08T10:09:25;28.70;99.90
47618;DHT22;33336;36.728;-4.414;2023-09-08T10:14:27;29.00;99.90
47618;DHT22;33336;36.728;-4.414;2023-09-08T10:19:33;29.70;99.90
47618;DHT22;33336;36.728;-4.414;2023-09-08T10:24:42;29.70;99.90
47618;DHT22;33336;36.728;-4.414;2023-09-08T10:29:46;29.20;99.90
47618;DHT22;33336;36.728;-4.414;2023-09-08T10:34:50;29.30;99.90
47618;DHT22;33336;36.728;-4.414;2023-09-08T10:39:54;29.50;99.90
47618;DHT22;33336;36.728;-4.414;2023-09-08T10:44:57;29.30;99.90
47618;DHT22;33336;36.728;-4.414;2023-09-08T10:50:01;29.40;99.90
47618;DHT22;33336;36.728;-4.414;2023-09-08T10:55:06;30.00;99.90
47618;DHT22;33336;36.728;-4.414;2023-09-08T11:00:09;30.10;99.90
47618;DHT22;33336;36.728;-4.414;2023-09-08T11:05:14;30.50;99.90
47618;DHT22;33336;36.728;-4.414;2023-09-08T11:10:18;30.80;99.90
47618;DHT22;33336;36.728;-4.414;2023-09-08T11:15:20;29.80;99.90
47618;DHT22;33336;36.728;-4.414;2023-09-08T11:20:27;30.00;99.90
47618;DHT22;33336;36.728;-4.414;2023-09-08T11:25:31;30.00;99.90
47618;DHT22;33336;36.728;-4.414;2023-09-08T11:30:35;30.70;99.90
47618;DHT22;33336;36.728;-4.414;2023-09-08T11:35:39;30.40;99.90
47618;DHT22;33336;36.728;-4.414;2023-09-08T11:40:44;30.70;99.90
47618;DHT22;33336;36.728;-4.414;2023-09-08T11:45:46;30.20;99.90
47618;DHT22;33336;36.728;-4.414;2023-09-08T11:50:52;30.20;99.90
47618;DHT22;33336;36.728;-4.414;2023-09-08T11:55:55;28.80;99.90
47618;DHT22;33336;36.728;-4.414;2023-09-08T12:00:58;29.10;99.90
47618;DHT22;33336;36.728;-4.414;2023-09-08T12:06:01;29.10;99.90
47618;DHT22;33336;36.728;-4.414;2023-09-08T12:11:05;29.30;99.90
47618;DHT22;33336;36.728;-4.414;2023-09-08T12:16:17;29.40;99.90
47618;DHT22;33336;36.728;-4.414;2023-09-08T12:21:21;29.90;99.90
47618;DHT22;33336;36.728;-4.414;2023-09-08T12:26:24;30.20;99.90
47618;DHT22;33336;36.728;-4.414;2023-09-08T12:31:28;29.80;99.90
47618;DHT22;33336;36.728;-4.414;2023-09-08T12:36:32;30.80;99.90
47618;DHT22;33336;36.728;-4.414;2023-09-08T12:41:38;31.30;99.90
47618;DHT22;33336;36.728;-4.414;2023-09-08T12:46:40;30.90;99.90
47618;DHT22;33336;36.728;-4.414;2023-09-08T12:51:44;31.60;99.90
47618;DHT22;33336;36.728;-4.414;2023-09-08T12:56:46;30.80;99.90
47618;DHT22;33336;36.728;-4.414;2023-09-08T13:01:50;30.70;99.90
47618;DHT22;33336;36.728;-4.414;2023-09-08T13:06:53;31.30;99.90
47618;DHT22;33336;36.728;-4.414;2023-09-08T13:11:57;31.60;99.90
47618;DHT22;33336;36.728;-4.414;2023-09-08T13:16:59;31.70;99.90
47618;DHT22;33336;36.728;-4.414;2023-09-08T13:22:03;31.80;99.90
47618;DHT22;33336;36.728;-4.414;2023-09-08T13:27:06;31.00;99.90
47618;DHT22;33336;36.728;-4.414;2023-09-08T13:32:09;31.30;99.90
47618;DHT22;33336;36.728;-4.414;2023-09-08T13:37:12;32.40;99.90
47618;DHT22;33336;36.728;-4.414;2023-09-08T13:42:16;32.00;99.90
47618;DHT22;33336;36.728;-4.414;2023-09-08T13:47:18;31.90;99.90
47618;DHT22;33336;36.728;-4.414;2023-09-08T13:52:22;31.80;99.90
47618;DHT22;33336;36.728;-4.414;2023-09-08T13:57:24;32.90;99.90
47618;DHT22;33336;36.728;-4.414;2023-09-08T14:02:28;32.80;99.90
47618;DHT22;33336;36.728;-4.414;2023-09-08T14:07:31;32.90;99.90
47618;DHT22;33336;36.728;-4.414;2023-09-08T14:12:35;32.90;99.90
47618;DHT22;33336;36.728;-4.414;2023-09-08T14:17:37;32.50;99.90
47618;DHT22;33336;36.728;-4.414;2023-09-08T14:22:41;32.60;99.90
47618;DHT22;33336;36.728;-4.414;2023-09-08T14:27:43;32.30;99.90
47618;DHT22;33336;36.728;-4.414;2023-09-08T14:32:47;33.20;99.90
47618;DHT22;33336;36.728;-4.414;2023-09-08T14:37:50;32.60;99.90
47618;DHT22;33336;36.728;-4.414;2023-09-08T14:42:54;32.50;99.90
47618;DHT22;33336;36.728;-4.414;2023-09-08T14:47:56;33.20;99.90
47618;DHT22;33336;36.728;-4.414;2023-09-08T14:53:00;33.80;99.90
47618;DHT22;33336;36.728;-4.414;2023-09-08T14:58:03;31.30;99.90
47618;DHT22;33336;36.728;-4.414;2023-09-08T15:03:07;31.90;99.90
47618;DHT22;33336;36.728;-4.414;2023-09-08T15:08:11;32.00;99.90
47618;DHT22;33336;36.728;-4.414;2023-09-08T15:13:14;31.40;99.90
47618;DHT22;33336;36.728;-4.414;2023-09-08T15:18:16;32.50;99.90
47618;DHT22;33336;36.728;-4.414;2023-09-08T15:23:22;33.30;99.90
47618;DHT22;33336;36.728;-4.414;2023-09-08T15:28:24;32.90;99.90
47618;DHT22;33336;36.728;-4.414;2023-09-08T15:33:28;33.20;99.90
47618;DHT22;33336;36.728;-4.414;2023-09-08T15:38:31;32.80;99.90
47618;DHT22;33336;36.728;-4.414;2023-09-08T15:43:35;32.70;99.90
47618;DHT22;33336;36.728;-4.414;2023-09-08T15:48:38;33.20;99.70
47618;DHT22;33336;36.728;-4.414;2023-09-08T15:53:42;33.90;99.50
47618;DHT22;33336;36.728;-4.414;2023-09-08T15:58:44;33.60;99.20
47618;DHT22;33336;36.728;-4.414;2023-09-08T16:03:47;33.60;98.80
47618;DHT22;33336;36.728;-4.414;2023-09-08T16:08:51;33.10;98.90
47618;DHT22;33336;36.728;-4.414;2023-09-08T16:13:54;32.80;99.90
47618;DHT22;33336;36.728;-4.414;2023-09-08T16:18:57;33.00;99.90
47618;DHT22;33336;36.728;-4.414;2023-09-08T16:24:01;32.50;99.90
47618;DHT22;33336;36.728;-4.414;2023-09-08T16:29:04;32.60;99.90
47618;DHT22;33336;36.728;-4.414;2023-09-08T16:34:07;31.50;99.90
47618;DHT22;33336;36.728;-4.414;2023-09-08T16:39:11;32.70;99.90
47618;DHT22;33336;36.728;-4.414;2023-09-08T16:44:16;32.60;99.90
47618;DHT22;33336;36.728;-4.414;2023-09-08T16:49:18;32.60;99.90
47618;DHT22;33336;36.728;-4.414;2023-09-08T16:54:22;32.70;99.50
47618;DHT22;33336;36.728;-4.414;2023-09-08T16:59:24;34.00;99.40
47618;DHT22;33336;36.728;-4.414;2023-09-08T17:04:27;33.60;99.00
47618;DHT22;33336;36.728;-4.414;2023-09-08T17:09:31;31.60;99.90
47618;DHT22;33336;36.728;-4.414;2023-09-08T17:14:34;30.00;99.90
47618;DHT22;33336;36.728;-4.414;2023-09-08T17:19:36;30.60;99.90
47618;DHT22;33336;36.728;-4.414;2023-09-08T17:24:40;30.40;99.90
47618;DHT22;33336;36.728;-4.414;2023-09-08T17:29:42;29.70;99.90
47618;DHT22;33336;36.728;-4.414;2023-09-08T17:34:45;30.80;99.90
47618;DHT22;33336;36.728;-4.414;2023-09-08T17:39:49;31.00;99.90
47618;DHT22;33336;36.728;-4.414;2023-09-08T17:44:52;28.90;99.90
47618;DHT22;33336;36.728;-4.414;2023-09-08T17:49:55;29.10;99.90
47618;DHT22;33336;36.728;-4.414;2023-09-08T17:54:59;29.50;99.90
47618;DHT22;33336;36.728;-4.414;2023-09-08T18:00:04;29.40;99.90
47618;DHT22;33336;36.728;-4.414;2023-09-08T18:05:08;29.90;99.90
47618;DHT22;33336;36.728;-4.414;2023-09-08T18:10:11;29.80;99.90
47618;DHT22;33336;36.728;-4.414;2023-09-08T18:15:14;29.40;99.90
47618;DHT22;33336;36.728;-4.414;2023-09-08T18:20:17;29.30;99.90
47618;DHT22;33336;36.728;-4.414;2023-09-08T18:25:21;29.50;99.90
47618;DHT22;33336;36.728;-4.414;2023-09-08T18:30:23;29.30;99.90
47618;DHT22;33336;36.728;-4.414;2023-09-08T18:35:26;29.70;99.90
47618;DHT22;33336;36.728;-4.414;2023-09-08T18:40:34;29.70;99.90
47618;DHT22;33336;36.728;-4.414;2023-09-08T18:45:36;29.10;99.90
47618;DHT22;33336;36.728;-4.414;2023-09-08T18:50:39;28.80;99.90
47618;DHT22;33336;36.728;-4.414;2023-09-08T18:55:44;28.80;99.90
47618;DHT22;33336;36.728;-4.414;2023-09-08T19:00:46;29.40;99.90
47618;DHT22;33336;36.728;-4.414;2023-09-08T19:05:49;28.80;99.90
47618;DHT22;33336;36.728;-4.414;2023-09-08T19:10:52;29.10;99.90
47618;DHT22;33336;36.728;-4.414;2023-09-08T19:15:55;29.30;99.90
47618;DHT22;33336;36.728;-4.414;2023-09-08T19:20:57;29.10;99.90
47618;DHT22;33336;36.728;-4.414;2023-09-08T19:26:05;28.60;99.90
47618;DHT22;33336;36.728;-4.414;2023-09-08T19:31:08;28.10;99.90
47618;DHT22;33336;36.728;-4.414;2023-09-08T19:36:11;29.00;99.90
47618;DHT22;33336;36.728;-4.414;2023-09-08T19:41:15;28.40;99.90
47618;DHT22;33336;36.728;-4.414;2023-09-08T19:46:18;28.60;99.90
47618;DHT22;33336;36.728;-4.414;2023-09-08T19:51:21;28.90;99.90
47618;DHT22;33336;36.728;-4.414;2023-09-08T19:56:25;28.20;99.90
47618;DHT22;33336;36.728;-4.414;2023-09-08T20:01:27;28.00;99.90
47618;DHT22;33336;36.728;-4.414;2023-09-08T20:06:30;27.40;99.90
47618;DHT22;33336;36.728;-4.414;2023-09-08T20:11:34;27.60;99.90
47618;DHT22;33336;36.728;-4.414;2023-09-08T20:16:37;28.50;99.90
47618;DHT22;33336;36.728;-4.414;2023-09-08T20:21:40;27.80;99.90
47618;DHT22;33336;36.728;-4.414;2023-09-08T20:26:45;27.10;99.90
47618;DHT22;33336;36.728;-4.414;2023-09-08T20:31:47;27.20;99.90
47618;DHT22;33336;36.728;-4.414;2023-09-08T20:36:50;26.80;99.90
47618;DHT22;33336;36.728;-4.414;2023-09-08T20:41:54;26.70;99.90
47618;DHT22;33336;36.728;-4.414;2023-09-08T20:46:57;26.70;99.90
47618;DHT22;33336;36.728;-4.414;2023-09-08T20:52:00;27.00;99.90
47618;DHT22;33336;36.728;-4.414;2023-09-08T20:57:04;27.20;99.90
47618;DHT22;33336;36.728;-4.414;2023-09-08T21:02:06;27.00;99.90
47618;DHT22;33336;36.728;-4.414;2023-09-08T21:07:10;27.50;99.90
47618;DHT22;33336;36.728;-4.414;2023-09-08T21:12:14;27.90;99.90
47618;DHT22;33336;36.728;-4.414;2023-09-08T21:17:17;27.60;99.90
47618;DHT22;33336;36.728;-4.414;2023-09-08T21:22:20;27.40;99.90
47618;DHT22;33336;36.728;-4.414;2023-09-08T21:27:24;27.80;99.90
47618;DHT22;33336;36.728;-4.414;2023-09-08T21:32:27;27.20;99.90
47618;DHT22;33336;36.728;-4.414;2023-09-08T21:37:29;27.10;99.90
47618;DHT22;33336;36.728;-4.414;2023-09-08T21:42:33;27.50;99.90
47618;DHT22;33336;36.728;-4.414;2023-09-08T21:47:36;27.00;99.90
47618;DHT22;33336;36.728;-4.414;2023-09-08T21:52:39;27.50;99.90
47618;DHT22;33336;36.728;-4.414;2023-09-08T21:57:43;27.50;99.90
47618;DHT22;33336;36.728;-4.414;2023-09-08T22:02:45;28.10;99.90
47618;DHT22;33336;36.728;-4.414;2023-09-08T22:07:48;28.50;99.90
47618;DHT22;33336;36.728;-4.414;2023-09-08T22:12:52;28.40;99.90
47618;DHT22;33336;36.728;-4.414;2023-09-08T22:17:55;28.00;99.90
47618;DHT22;33336;36.728;-4.414;2023-09-08T22:22:58;27.30;99.90
47618;DHT22;33336;36.728;-4.414;2023-09-08T22:28:02;27.30;99.90
47618;DHT22;33336;36.728;-4.414;2023-09-08T22:33:04;27.70;99.90
47618;DHT22;33336;36.728;-4.414;2023-09-08T22:38:07;28.50;99.90
47618;DHT22;33336;36.728;-4.414;2023-09-08T22:43:11;28.90;99.90
47618;DHT22;33336;36.728;-4.414;2023-09-08T22:48:14;28.00;99.90
47618;DHT22;33336;36.728;-4.414;2023-09-08T22:53:18;28.20;99.90
47618;DHT22;33336;36.728;-4.414;2023-09-08T22:58:23;27.70;99.90
47618;DHT22;33336;36.728;-4.414;2023-09-08T23:03:26;28.30;99.90
47618;DHT22;33336;36.728;-4.414;2023-09-08T23:08:28;28.60;99.90
47618;DHT22;33336;36.728;-4.414;2023-09-08T23:13:32;28.50;99.90
47618;DHT22;33336;36.728;-4.414;2023-09-08T23:18:35;28.30;99.90
47618;DHT22;33336;36.728;-4.414;2023-09-08T23:23:38;28.30;99.90
47618;DHT22;33336;36.728;-4.414;2023-09-08T23:28:43;28.20;99.90
47618;DHT22;33336;36.728;-4.414;2023-09-08T23:33:45;28.10;99.90
47618;DHT22;33336;36.728;-4.414;2023-09-08T23:38:48;27.50;99.90
47618;DHT22;33336;36.728;-4.414;2023-09-08T23:43:52;26.90;99.90
47618;DHT22;33336;36.728;-4.414;2023-09-08T23:48:55;27.20;99.90
47618;DHT22;33336;36.728;-4.414;2023-09-08T23:53:58;27.60;99.90
47618;DHT22;33336;36.728;-4.414;2023-09-08T23:59:02;27.30;99.90
